sensor_id;sensor_type;location;lat;lon;timestamp;P1;durP1;ratioP1;P2;durP2;ratioP2
16015;SDS011;8112;53.592;10.184;2023-01-26T00:01:43;52.00;;;27.73;;
16015;SDS011;8112;53.592;10.184;2023-01-26T00:06:46;59.93;;;29.90;;
16015;SDS011;8112;53.592;10.184;2023-01-26T00:11:48;63.43;;;29.13;;
16015;SDS011;8112;53.592;10.184;2023-01-26T00:16:50;55.27;;;28.90;;
16015;SDS011;8112;53.592;10.184;2023-01-26T00:21:54;54.93;;;28.10;;
16015;SDS011;8112;53.592;10.184;2023-01-26T00:26:55;53.47;;;27.90;;
16015;SDS011;8112;53.592;10.184;2023-01-26T00:31:58;55.67;;;27.80;;
16015;SDS011;8112;53.592;10.184;2023-01-26T00:37:01;50.60;;;27.53;;
16015;SDS011;8112;53.592;10.184;2023-01-26T00:42:02;54.90;;;28.67;;
16015;SDS011;8112;53.592;10.184;2023-01-26T00:47:09;52.47;;;27.00;;
16015;SDS011;8112;53.592;10.184;2023-01-26T00:52:13;54.23;;;27.60;;
16015;SDS011;8112;53.592;10.184;2023-01-26T00:57:15;54.63;;;27.40;;
16015;SDS011;8112;53.592;10.184;2023-01-26T01:02:17;53.60;;;28.33;;
16015;SDS011;8112;53.592;10.184;2023-01-26T01:07:20;51.00;;;27.97;;
16015;SDS011;8112;53.592;10.184;2023-01-26T01:12:21;52.17;;;27.67;;
16015;SDS011;8112;53.592;10.184;2023-01-26T01:17:23;50.00;;;25.63;;
16015;SDS011;8112;53.592;10.184;2023-01-26T01:22:27;52.77;;;27.20;;
16015;SDS011;8112;53.592;10.184;2023-01-26T01:27:28;50.83;;;26.40;;
16015;SDS011;8112;53.592;10.184;2023-01-26T01:32:30;55.40;;;26.23;;
16015;SDS011;8112;53.592;10.184;2023-01-26T01:37:33;48.73;;;25.77;;
16015;SDS011;8112;53.592;10.184;2023-01-26T01:42:36;50.53;;;25.93;;
16015;SDS011;8112;53.592;10.184;2023-01-26T01:47:37;51.83;;;26.10;;
16015;SDS011;8112;53.592;10.184;2023-01-26T01:52:41;49.37;;;25.23;;
16015;SDS011;8112;53.592;10.184;2023-01-26T01:57:43;50.03;;;24.03;;
16015;SDS011;8112;53.592;10.184;2023-01-26T02:02:51;47.87;;;24.67;;
16015;SDS011;8112;53.592;10.184;2023-01-26T02:08:11;54.10;;;26.23;;
16015;SDS011;8112;53.592;10.184;2023-01-26T02:13:14;51.33;;;25.70;;
16015;SDS011;8112;53.592;10.184;2023-01-26T02:18:18;56.63;;;26.93;;
16015;SDS011;8112;53.592;10.184;2023-01-26T02:23:22;51.93;;;26.87;;
16015;SDS011;8112;53.592;10.184;2023-01-26T02:28:32;47.00;;;25.37;;
16015;SDS011;8112;53.592;10.184;2023-01-26T02:33:35;51.27;;;26.67;;
16015;SDS011;8112;53.592;10.184;2023-01-26T02:38:39;46.37;;;25.03;;
16015;SDS011;8112;53.592;10.184;2023-01-26T02:43:47;50.10;;;25.33;;
16015;SDS011;8112;53.592;10.184;2023-01-26T02:48:49;46.37;;;24.57;;
16015;SDS011;8112;53.592;10.184;2023-01-26T02:54:09;42.90;;;24.93;;
16015;SDS011;8112;53.592;10.184;2023-01-26T02:59:34;49.13;;;24.00;;
16015;SDS011;8112;53.592;10.184;2023-01-26T03:04:36;49.67;;;24.33;;
16015;SDS011;8112;53.592;10.184;2023-01-26T03:09:37;48.43;;;25.90;;
16015;SDS011;8112;53.592;10.184;2023-01-26T03:14:43;54.50;;;26.97;;
16015;SDS011;8112;53.592;10.184;2023-01-26T03:19:45;50.03;;;24.77;;
16015;SDS011;8112;53.592;10.184;2023-01-26T03:25:14;41.73;;;22.63;;
16015;SDS011;8112;53.592;10.184;2023-01-26T03:30:35;46.20;;;24.00;;
16015;SDS011;8112;53.592;10.184;2023-01-26T03:35:36;43.43;;;23.73;;
16015;SDS011;8112;53.592;10.184;2023-01-26T03:40:39;46.77;;;23.97;;
16015;SDS011;8112;53.592;10.184;2023-01-26T03:46:02;44.37;;;23.40;;
16015;SDS011;8112;53.592;10.184;2023-01-26T03:51:21;41.73;;;21.77;;
16015;SDS011;8112;53.592;10.184;2023-01-26T03:56:40;39.60;;;22.37;;
16015;SDS011;8112;53.592;10.184;2023-01-26T04:01:48;40.03;;;21.77;;
16015;SDS011;8112;53.592;10.184;2023-01-26T04:07:09;41.43;;;22.77;;
16015;SDS011;8112;53.592;10.184;2023-01-26T04:12:28;38.20;;;20.83;;
16015;SDS011;8112;53.592;10.184;2023-01-26T04:17:42;43.00;;;22.83;;
16015;SDS011;8112;53.592;10.184;2023-01-26T04:23:01;40.17;;;20.93;;
16015;SDS011;8112;53.592;10.184;2023-01-26T04:28:04;41.13;;;22.17;;
16015;SDS011;8112;53.592;10.184;2023-01-26T04:33:07;45.63;;;22.80;;
16015;SDS011;8112;53.592;10.184;2023-01-26T04:38:09;40.20;;;21.70;;
16015;SDS011;8112;53.592;10.184;2023-01-26T04:43:14;39.57;;;22.40;;
16015;SDS011;8112;53.592;10.184;2023-01-26T04:48:17;43.60;;;22.47;;
16015;SDS011;8112;53.592;10.184;2023-01-26T04:53:20;40.43;;;21.33;;
16015;SDS011;8112;53.592;10.184;2023-01-26T04:58:22;41.10;;;21.77;;
16015;SDS011;8112;53.592;10.184;2023-01-26T05:03:26;44.23;;;22.03;;
16015;SDS011;8112;53.592;10.184;2023-01-26T05:08:29;38.17;;;20.27;;
16015;SDS011;8112;53.592;10.184;2023-01-26T05:13:30;38.63;;;20.37;;
16015;SDS011;8112;53.592;10.184;2023-01-26T05:18:39;34.20;;;19.83;;
16015;SDS011;8112;53.592;10.184;2023-01-26T05:24:01;36.63;;;18.90;;
16015;SDS011;8112;53.592;10.184;2023-01-26T05:29:28;35.37;;;19.27;;
16015;SDS011;8112;53.592;10.184;2023-01-26T05:34:31;35.07;;;19.60;;
16015;SDS011;8112;53.592;10.184;2023-01-26T05:39:33;34.37;;;19.67;;
16015;SDS011;8112;53.592;10.184;2023-01-26T05:44:38;37.40;;;18.97;;
16015;SDS011;8112;53.592;10.184;2023-01-26T05:49:46;37.17;;;18.47;;
16015;SDS011;8112;53.592;10.184;2023-01-26T05:54:52;36.17;;;19.10;;
16015;SDS011;8112;53.592;10.184;2023-01-26T05:59:54;39.13;;;20.47;;
16015;SDS011;8112;53.592;10.184;2023-01-26T06:04:57;35.93;;;19.10;;
16015;SDS011;8112;53.592;10.184;2023-01-26T06:09:59;34.30;;;19.13;;
16015;SDS011;8112;53.592;10.184;2023-01-26T06:15:29;35.13;;;19.07;;
16015;SDS011;8112;53.592;10.184;2023-01-26T06:20:32;31.60;;;17.87;;
16015;SDS011;8112;53.592;10.184;2023-01-26T06:25:35;32.50;;;18.57;;
16015;SDS011;8112;53.592;10.184;2023-01-26T06:30:39;32.80;;;17.60;;
16015;SDS011;8112;53.592;10.184;2023-01-26T06:35:46;29.33;;;16.80;;
16015;SDS011;8112;53.592;10.184;2023-01-26T06:40:48;32.83;;;18.20;;
16015;SDS011;8112;53.592;10.184;2023-01-26T06:45:50;32.30;;;17.00;;
16015;SDS011;8112;53.592;10.184;2023-01-26T06:50:56;29.63;;;16.87;;
16015;SDS011;8112;53.592;10.184;2023-01-26T06:56:04;27.37;;;15.73;;
16015;SDS011;8112;53.592;10.184;2023-01-26T07:01:23;26.80;;;15.27;;
16015;SDS011;8112;53.592;10.184;2023-01-26T07:06:28;25.83;;;15.37;;
16015;SDS011;8112;53.592;10.184;2023-01-26T07:11:29;26.10;;;14.87;;
16015;SDS011;8112;53.592;10.184;2023-01-26T07:16:31;25.23;;;15.93;;
16015;SDS011;8112;53.592;10.184;2023-01-26T07:21:34;25.70;;;14.97;;
16015;SDS011;8112;53.592;10.184;2023-01-26T07:26:38;26.80;;;15.67;;
16015;SDS011;8112;53.592;10.184;2023-01-26T07:31:39;25.57;;;15.23;;
16015;SDS011;8112;53.592;10.184;2023-01-26T07:36:44;27.53;;;15.60;;
16015;SDS011;8112;53.592;10.184;2023-01-26T07:41:47;28.03;;;15.70;;
16015;SDS011;8112;53.592;10.184;2023-01-26T07:47:08;25.50;;;14.93;;
16015;SDS011;8112;53.592;10.184;2023-01-26T07:52:11;25.40;;;13.93;;
16015;SDS011;8112;53.592;10.184;2023-01-26T07:57:13;24.27;;;15.00;;
16015;SDS011;8112;53.592;10.184;2023-01-26T08:02:14;29.27;;;17.00;;
16015;SDS011;8112;53.592;10.184;2023-01-26T08:07:17;28.10;;;15.43;;
16015;SDS011;8112;53.592;10.184;2023-01-26T08:12:19;24.27;;;14.67;;
16015;SDS011;8112;53.592;10.184;2023-01-26T08:17:21;25.57;;;16.07;;
16015;SDS011;8112;53.592;10.184;2023-01-26T08:22:24;23.80;;;14.63;;
16015;SDS011;8112;53.592;10.184;2023-01-26T08:27:26;27.63;;;16.03;;
16015;SDS011;8112;53.592;10.184;2023-01-26T08:32:27;22.80;;;14.83;;
16015;SDS011;8112;53.592;10.184;2023-01-26T08:37:31;23.37;;;14.73;;
16015;SDS011;8112;53.592;10.184;2023-01-26T08:42:33;25.70;;;14.57;;
16015;SDS011;8112;53.592;10.184;2023-01-26T08:47:35;28.00;;;15.80;;
16015;SDS011;8112;53.592;10.184;2023-01-26T08:52:38;25.67;;;15.17;;
16015;SDS011;8112;53.592;10.184;2023-01-26T08:57:40;24.27;;;15.60;;
16015;SDS011;8112;53.592;10.184;2023-01-26T09:02:42;24.27;;;15.30;;
16015;SDS011;8112;53.592;10.184;2023-01-26T09:07:45;26.10;;;14.70;;
16015;SDS011;8112;53.592;10.184;2023-01-26T09:12:46;22.47;;;13.27;;
16015;SDS011;8112;53.592;10.184;2023-01-26T09:17:48;19.03;;;12.17;;
16015;SDS011;8112;53.592;10.184;2023-01-26T09:22:51;21.77;;;12.77;;
16015;SDS011;8112;53.592;10.184;2023-01-26T09:27:53;17.60;;;11.43;;
16015;SDS011;8112;53.592;10.184;2023-01-26T09:32:56;19.80;;;11.50;;
16015;SDS011;8112;53.592;10.184;2023-01-26T09:37:59;17.60;;;11.33;;
16015;SDS011;8112;53.592;10.184;2023-01-26T09:43:03;17.50;;;11.50;;
16015;SDS011;8112;53.592;10.184;2023-01-26T09:48:20;18.70;;;10.50;;
16015;SDS011;8112;53.592;10.184;2023-01-26T09:53:33;17.40;;;10.63;;
16015;SDS011;8112;53.592;10.184;2023-01-26T09:58:44;14.20;;;10.00;;
16015;SDS011;8112;53.592;10.184;2023-01-26T10:03:55;16.93;;;11.03;;
16015;SDS011;8112;53.592;10.184;2023-01-26T10:09:07;18.33;;;9.93;;
16015;SDS011;8112;53.592;10.184;2023-01-26T10:14:17;19.50;;;10.43;;
16015;SDS011;8112;53.592;10.184;2023-01-26T10:19:25;15.33;;;10.20;;
16015;SDS011;8112;53.592;10.184;2023-01-26T10:24:36;20.10;;;10.63;;
16015;SDS011;8112;53.592;10.184;2023-01-26T10:29:38;17.93;;;11.07;;
16015;SDS011;8112;53.592;10.184;2023-01-26T10:34:40;19.70;;;11.23;;
16015;SDS011;8112;53.592;10.184;2023-01-26T10:39:54;18.83;;;11.90;;
16015;SDS011;8112;53.592;10.184;2023-01-26T10:44:57;15.17;;;10.07;;
16015;SDS011;8112;53.592;10.184;2023-01-26T10:50:17;17.53;;;11.20;;
16015;SDS011;8112;53.592;10.184;2023-01-26T10:55:23;16.43;;;10.60;;
16015;SDS011;8112;53.592;10.184;2023-01-26T11:00:26;21.63;;;12.50;;
16015;SDS011;8112;53.592;10.184;2023-01-26T11:05:29;18.23;;;12.20;;
16015;SDS011;8112;53.592;10.184;2023-01-26T11:10:33;18.33;;;10.73;;
16015;SDS011;8112;53.592;10.184;2023-01-26T11:15:37;21.03;;;12.80;;
16015;SDS011;8112;53.592;10.184;2023-01-26T11:20:45;21.37;;;12.13;;
16015;SDS011;8112;53.592;10.184;2023-01-26T11:25:59;18.57;;;12.53;;
16015;SDS011;8112;53.592;10.184;2023-01-26T11:31:17;20.93;;;12.10;;
16015;SDS011;8112;53.592;10.184;2023-01-26T11:36:35;20.83;;;12.03;;
16015;SDS011;8112;53.592;10.184;2023-01-26T11:41:49;22.77;;;13.00;;
16015;SDS011;8112;53.592;10.184;2023-01-26T11:47:09;26.87;;;13.60;;
16015;SDS011;8112;53.592;10.184;2023-01-26T11:52:22;30.63;;;13.60;;
16015;SDS011;8112;53.592;10.184;2023-01-26T11:57:32;26.17;;;14.50;;
16015;SDS011;8112;53.592;10.184;2023-01-26T12:02:42;27.03;;;13.87;;
16015;SDS011;8112;53.592;10.184;2023-01-26T12:07:46;26.33;;;13.43;;
16015;SDS011;8112;53.592;10.184;2023-01-26T12:12:56;25.17;;;13.30;;
16015;SDS011;8112;53.592;10.184;2023-01-26T12:18:05;28.60;;;13.30;;
16015;SDS011;8112;53.592;10.184;2023-01-26T12:23:15;24.93;;;12.63;;
16015;SDS011;8112;53.592;10.184;2023-01-26T12:28:28;21.77;;;12.50;;
16015;SDS011;8112;53.592;10.184;2023-01-26T12:33:35;25.97;;;13.73;;
16015;SDS011;8112;53.592;10.184;2023-01-26T12:38:39;30.73;;;13.97;;
16015;SDS011;8112;53.592;10.184;2023-01-26T12:44:01;29.57;;;13.47;;
16015;SDS011;8112;53.592;10.184;2023-01-26T12:49:17;24.70;;;13.07;;
16015;SDS011;8112;53.592;10.184;2023-01-26T12:54:25;21.70;;;11.80;;
16015;SDS011;8112;53.592;10.184;2023-01-26T12:59:36;21.10;;;11.90;;
16015;SDS011;8112;53.592;10.184;2023-01-26T13:04:39;25.73;;;13.03;;
16015;SDS011;8112;53.592;10.184;2023-01-26T13:09:50;21.43;;;10.43;;
16015;SDS011;8112;53.592;10.184;2023-01-26T13:15:13;23.10;;;11.80;;
16015;SDS011;8112;53.592;10.184;2023-01-26T13:25:47;22.37;;;11.37;;
16015;SDS011;8112;53.592;10.184;2023-01-26T13:31:08;21.33;;;10.83;;
16015;SDS011;8112;53.592;10.184;2023-01-26T13:36:12;16.37;;;8.53;;
16015;SDS011;8112;53.592;10.184;2023-01-26T13:41:18;17.17;;;9.77;;
16015;SDS011;8112;53.592;10.184;2023-01-26T13:46:25;16.40;;;9.43;;
16015;SDS011;8112;53.592;10.184;2023-01-26T13:51:30;18.20;;;8.90;;
16015;SDS011;8112;53.592;10.184;2023-01-26T13:56:34;16.13;;;9.10;;
16015;SDS011;8112;53.592;10.184;2023-01-26T14:01:43;15.83;;;8.90;;
16015;SDS011;8112;53.592;10.184;2023-01-26T14:06:47;17.93;;;8.80;;
16015;SDS011;8112;53.592;10.184;2023-01-26T14:11:54;17.57;;;9.60;;
16015;SDS011;8112;53.592;10.184;2023-01-26T14:17:00;15.83;;;8.93;;
16015;SDS011;8112;53.592;10.184;2023-01-26T14:22:09;17.80;;;9.20;;
16015;SDS011;8112;53.592;10.184;2023-01-26T14:27:26;19.60;;;10.00;;
16015;SDS011;8112;53.592;10.184;2023-01-26T14:32:33;17.67;;;9.23;;
16015;SDS011;8112;53.592;10.184;2023-01-26T14:37:34;21.20;;;11.40;;
16015;SDS011;8112;53.592;10.184;2023-01-26T14:42:36;17.10;;;8.80;;
16015;SDS011;8112;53.592;10.184;2023-01-26T14:47:42;20.30;;;9.77;;
16015;SDS011;8112;53.592;10.184;2023-01-26T14:52:45;17.40;;;9.23;;
16015;SDS011;8112;53.592;10.184;2023-01-26T14:57:48;15.87;;;8.83;;
16015;SDS011;8112;53.592;10.184;2023-01-26T15:02:53;15.37;;;8.07;;
16015;SDS011;8112;53.592;10.184;2023-01-26T15:07:56;14.07;;;7.87;;
16015;SDS011;8112;53.592;10.184;2023-01-26T15:13:00;14.80;;;8.93;;
16015;SDS011;8112;53.592;10.184;2023-01-26T15:18:15;16.63;;;9.27;;
16015;SDS011;8112;53.592;10.184;2023-01-26T15:23:23;14.10;;;9.30;;
16015;SDS011;8112;53.592;10.184;2023-01-26T15:28:27;14.33;;;9.67;;
16015;SDS011;8112;53.592;10.184;2023-01-26T15:33:43;20.70;;;12.07;;
16015;SDS011;8112;53.592;10.184;2023-01-26T15:38:47;17.17;;;10.80;;
16015;SDS011;8112;53.592;10.184;2023-01-26T15:43:48;20.50;;;11.90;;
16015;SDS011;8112;53.592;10.184;2023-01-26T15:48:51;20.47;;;11.70;;
16015;SDS011;8112;53.592;10.184;2023-01-26T15:53:53;19.43;;;11.97;;
16015;SDS011;8112;53.592;10.184;2023-01-26T15:58:55;16.73;;;10.50;;
16015;SDS011;8112;53.592;10.184;2023-01-26T16:03:58;20.27;;;11.17;;
16015;SDS011;8112;53.592;10.184;2023-01-26T16:08:59;18.53;;;11.30;;
16015;SDS011;8112;53.592;10.184;2023-01-26T16:14:01;22.83;;;12.40;;
16015;SDS011;8112;53.592;10.184;2023-01-26T16:19:04;20.50;;;12.80;;
16015;SDS011;8112;53.592;10.184;2023-01-26T16:24:06;21.50;;;12.60;;
16015;SDS011;8112;53.592;10.184;2023-01-26T16:29:09;20.93;;;12.87;;
16015;SDS011;8112;53.592;10.184;2023-01-26T16:34:12;23.30;;;14.17;;
16015;SDS011;8112;53.592;10.184;2023-01-26T16:39:14;23.70;;;15.40;;
16015;SDS011;8112;53.592;10.184;2023-01-26T16:44:16;31.17;;;16.00;;
16015;SDS011;8112;53.592;10.184;2023-01-26T16:49:20;33.30;;;17.53;;
16015;SDS011;8112;53.592;10.184;2023-01-26T16:54:21;35.50;;;16.33;;
16015;SDS011;8112;53.592;10.184;2023-01-26T16:59:23;32.57;;;16.20;;
16015;SDS011;8112;53.592;10.184;2023-01-26T17:04:26;33.03;;;16.13;;
16015;SDS011;8112;53.592;10.184;2023-01-26T17:09:28;33.20;;;18.07;;
16015;SDS011;8112;53.592;10.184;2023-01-26T17:14:29;34.87;;;18.00;;
16015;SDS011;8112;53.592;10.184;2023-01-26T17:19:33;30.30;;;15.07;;
16015;SDS011;8112;53.592;10.184;2023-01-26T17:24:34;29.97;;;14.80;;
16015;SDS011;8112;53.592;10.184;2023-01-26T17:29:36;25.00;;;14.70;;
16015;SDS011;8112;53.592;10.184;2023-01-26T17:34:42;27.47;;;13.60;;
16015;SDS011;8112;53.592;10.184;2023-01-26T17:39:45;27.10;;;13.50;;
16015;SDS011;8112;53.592;10.184;2023-01-26T17:44:47;30.23;;;11.63;;
16015;SDS011;8112;53.592;10.184;2023-01-26T17:49:51;21.03;;;12.43;;
16015;SDS011;8112;53.592;10.184;2023-01-26T17:54:53;19.23;;;12.47;;
16015;SDS011;8112;53.592;10.184;2023-01-26T17:59:55;21.40;;;11.23;;
16015;SDS011;8112;53.592;10.184;2023-01-26T18:04:58;18.50;;;11.47;;
16015;SDS011;8112;53.592;10.184;2023-01-26T18:10:00;22.00;;;12.13;;
16015;SDS011;8112;53.592;10.184;2023-01-26T18:15:01;20.40;;;10.97;;
16015;SDS011;8112;53.592;10.184;2023-01-26T18:20:06;19.57;;;10.80;;
16015;SDS011;8112;53.592;10.184;2023-01-26T18:25:08;20.07;;;10.13;;
16015;SDS011;8112;53.592;10.184;2023-01-26T18:30:11;18.73;;;10.90;;
16015;SDS011;8112;53.592;10.184;2023-01-26T18:35:14;19.30;;;12.20;;
16015;SDS011;8112;53.592;10.184;2023-01-26T18:40:16;21.27;;;13.00;;
16015;SDS011;8112;53.592;10.184;2023-01-26T18:45:18;21.37;;;12.27;;
16015;SDS011;8112;53.592;10.184;2023-01-26T18:50:22;20.80;;;12.27;;
16015;SDS011;8112;53.592;10.184;2023-01-26T18:55:23;21.30;;;12.87;;
16015;SDS011;8112;53.592;10.184;2023-01-26T19:00:25;22.40;;;12.93;;
16015;SDS011;8112;53.592;10.184;2023-01-26T19:05:28;23.93;;;13.20;;
16015;SDS011;8112;53.592;10.184;2023-01-26T19:10:33;22.53;;;12.07;;
16015;SDS011;8112;53.592;10.184;2023-01-26T19:15:35;17.57;;;11.17;;
16015;SDS011;8112;53.592;10.184;2023-01-26T19:20:38;21.30;;;11.50;;
16015;SDS011;8112;53.592;10.184;2023-01-26T19:25:40;18.13;;;11.90;;
16015;SDS011;8112;53.592;10.184;2023-01-26T19:30:42;20.63;;;12.40;;
16015;SDS011;8112;53.592;10.184;2023-01-26T19:35:45;18.70;;;10.97;;
16015;SDS011;8112;53.592;10.184;2023-01-26T19:40:48;22.30;;;11.27;;
16015;SDS011;8112;53.592;10.184;2023-01-26T19:45:54;19.33;;;10.97;;
16015;SDS011;8112;53.592;10.184;2023-01-26T19:50:59;15.13;;;8.00;;
16015;SDS011;8112;53.592;10.184;2023-01-26T19:56:05;11.83;;;7.50;;
16015;SDS011;8112;53.592;10.184;2023-01-26T20:01:08;19.17;;;8.63;;
16015;SDS011;8112;53.592;10.184;2023-01-26T20:06:14;14.47;;;8.73;;
16015;SDS011;8112;53.592;10.184;2023-01-26T20:11:17;14.60;;;8.90;;
16015;SDS011;8112;53.592;10.184;2023-01-26T20:16:24;20.80;;;9.93;;
16015;SDS011;8112;53.592;10.184;2023-01-26T20:21:28;13.97;;;8.67;;
16015;SDS011;8112;53.592;10.184;2023-01-26T20:26:31;16.37;;;9.00;;
16015;SDS011;8112;53.592;10.184;2023-01-26T20:31:33;13.53;;;8.47;;
16015;SDS011;8112;53.592;10.184;2023-01-26T20:36:36;13.67;;;9.60;;
16015;SDS011;8112;53.592;10.184;2023-01-26T20:41:39;14.43;;;10.30;;
16015;SDS011;8112;53.592;10.184;2023-01-26T20:46:41;20.47;;;10.40;;
16015;SDS011;8112;53.592;10.184;2023-01-26T20:51:44;19.23;;;11.00;;
16015;SDS011;8112;53.592;10.184;2023-01-26T20:56:46;20.77;;;11.60;;
16015;SDS011;8112;53.592;10.184;2023-01-26T21:01:49;17.37;;;10.53;;
16015;SDS011;8112;53.592;10.184;2023-01-26T21:06:52;14.93;;;10.47;;
16015;SDS011;8112;53.592;10.184;2023-01-26T21:11:54;15.97;;;9.03;;
16015;SDS011;8112;53.592;10.184;2023-01-26T21:16:56;13.43;;;8.50;;
16015;SDS011;8112;53.592;10.184;2023-01-26T21:21:59;13.93;;;8.37;;
16015;SDS011;8112;53.592;10.184;2023-01-26T21:27:01;13.33;;;8.27;;
16015;SDS011;8112;53.592;10.184;2023-01-26T21:32:04;11.37;;;7.17;;
16015;SDS011;8112;53.592;10.184;2023-01-26T21:37:07;10.40;;;7.27;;
16015;SDS011;8112;53.592;10.184;2023-01-26T21:42:09;10.20;;;7.00;;
16015;SDS011;8112;53.592;10.184;2023-01-26T21:47:11;11.07;;;6.60;;
16015;SDS011;8112;53.592;10.184;2023-01-26T21:52:14;8.17;;;6.80;;
16015;SDS011;8112;53.592;10.184;2023-01-26T21:57:33;11.33;;;6.17;;
16015;SDS011;8112;53.592;10.184;2023-01-26T22:02:52;9.93;;;6.63;;
16015;SDS011;8112;53.592;10.184;2023-01-26T22:07:56;8.67;;;6.00;;
16015;SDS011;8112;53.592;10.184;2023-01-26T22:12:58;7.20;;;5.60;;
16015;SDS011;8112;53.592;10.184;2023-01-26T22:17:59;8.60;;;5.53;;
16015;SDS011;8112;53.592;10.184;2023-01-26T22:23:02;6.00;;;4.70;;
16015;SDS011;8112;53.592;10.184;2023-01-26T22:28:04;7.10;;;4.77;;
16015;SDS011;8112;53.592;10.184;2023-01-26T22:33:07;7.27;;;5.13;;
16015;SDS011;8112;53.592;10.184;2023-01-26T22:38:10;10.07;;;4.67;;
16015;SDS011;8112;53.592;10.184;2023-01-26T22:43:11;6.50;;;4.07;;
16015;SDS011;8112;53.592;10.184;2023-01-26T22:48:13;4.30;;;3.40;;
16015;SDS011;8112;53.592;10.184;2023-01-26T22:53:16;3.50;;;3.20;;
16015;SDS011;8112;53.592;10.184;2023-01-26T22:58:18;5.33;;;3.10;;
16015;SDS011;8112;53.592;10.184;2023-01-26T23:03:20;4.20;;;3.23;;
16015;SDS011;8112;53.592;10.184;2023-01-26T23:08:23;3.00;;;2.70;;
16015;SDS011;8112;53.592;10.184;2023-01-26T23:13:25;4.67;;;2.80;;
16015;SDS011;8112;53.592;10.184;2023-01-26T23:18:26;2.40;;;2.20;;
16015;SDS011;8112;53.592;10.184;2023-01-26T23:23:29;2.80;;;2.60;;
16015;SDS011;8112;53.592;10.184;2023-01-26T23:28:32;2.70;;;2.20;;
16015;SDS011;8112;53.592;10.184;2023-01-26T23:33:36;3.40;;;2.70;;
16015;SDS011;8112;53.592;10.184;2023-01-26T23:38:52;3.10;;;2.50;;
16015;SDS011;8112;53.592;10.184;2023-01-26T23:43:53;2.50;;;2.30;;
16015;SDS011;8112;53.592;10.184;2023-01-26T23:48:55;5.47;;;2.87;;
16015;SDS011;8112;53.592;10.184;2023-01-26T23:53:58;3.50;;;2.50;;
16015;SDS011;8112;53.592;10.184;2023-01-26T23:59:00;2.60;;;2.33;;
